createdAt,value
2023-10-17T00:03:21.341Z,3.46
2023-10-17T00:08:23.383Z,3.47
2023-10-17T00:13:30.854Z,3.47
2023-10-17T00:18:32.269Z,3.46
2023-10-17T00:23:35.330Z,3.46
2023-10-17T00:28:36.883Z,3.46
2023-10-17T00:33:42.250Z,3.47
2023-10-17T00:38:44.333Z,3.48
2023-10-17T00:43:45.733Z,3.44
2023-10-17T00:48:48.700Z,3.37
2023-10-17T00:53:50.952Z,3.33
2023-10-17T00:58:52.333Z,3.28
2023-10-17T01:03:55.493Z,3.28
2023-10-17T01:14:33.118Z,3.36
2023-10-17T01:19:36.298Z,3.42
2023-10-17T01:24:41.452Z,3.47
2023-10-17T01:29:44.766Z,3.50
2023-10-17T01:34:47.861Z,3.52
2023-10-17T01:39:49.294Z,3.52
2023-10-17T01:44:51.947Z,3.52
2023-10-17T01:49:53.307Z,3.53
2023-10-17T01:54:54.732Z,3.54
2023-10-17T01:59:56.210Z,3.53
2023-10-17T02:04:58.744Z,3.53
2023-10-17T02:10:01.547Z,3.53
2023-10-17T02:15:06.953Z,3.53
2023-10-17T02:20:19.031Z,3.54
2023-10-17T02:25:22.772Z,3.55
2023-10-17T02:30:25.045Z,3.55
2023-10-17T02:35:41.808Z,3.56
2023-10-17T02:40:51.814Z,3.57
2023-10-17T02:45:54.153Z,3.57
2023-10-17T02:51:03.832Z,3.57
2023-10-17T02:56:18.922Z,3.56
2023-10-17T03:01:23.252Z,3.55
2023-10-17T03:06:24.804Z,3.55
2023-10-17T03:11:48.018Z,3.54
2023-10-17T03:16:53.567Z,3.50
2023-10-17T03:22:00.571Z,3.45
2023-10-17T03:27:04.757Z,3.40
2023-10-17T03:32:12.064Z,3.35
2023-10-17T03:37:25.570Z,3.33
2023-10-17T03:42:31.052Z,3.31
2023-10-17T03:47:32.631Z,3.29
2023-10-17T03:52:34.396Z,3.27
2023-10-17T03:57:40.138Z,3.24
2023-10-17T04:02:42.476Z,3.24
2023-10-17T04:07:52.486Z,3.25
2023-10-17T04:13:13.851Z,3.28
2023-10-17T04:18:15.697Z,3.31
2023-10-17T04:23:21.982Z,3.36
2023-10-17T04:28:26.760Z,3.41
2023-10-17T04:33:29.578Z,3.44
2023-10-17T04:38:37.323Z,3.42
2023-10-17T04:43:44.768Z,3.40
2023-10-17T04:48:48.806Z,3.41
2023-10-17T04:53:52.501Z,3.39
2023-10-17T04:58:57.407Z,3.39
2023-10-17T05:03:59.515Z,3.41
2023-10-17T05:09:02.706Z,3.45
2023-10-17T05:14:23.174Z,3.51
2023-10-17T05:19:43.452Z,3.56
2023-10-17T05:25:05.014Z,3.63
2023-10-17T05:30:27.790Z,3.68
2023-10-17T05:35:47.852Z,3.70
2023-10-17T05:41:08.028Z,3.77
2023-10-17T05:46:28.369Z,3.82
2023-10-17T05:51:49.733Z,3.84
2023-10-17T05:57:10.135Z,3.89
2023-10-17T06:02:30.261Z,3.97
2023-10-17T06:07:50.268Z,4.06
2023-10-17T06:13:10.628Z,4.11
2023-10-17T06:18:19.023Z,4.14
2023-10-17T06:23:39.474Z,4.28
2023-10-17T06:28:47.168Z,4.45
2023-10-17T06:33:53.232Z,4.56
2023-10-17T06:38:55.601Z,4.72
2023-10-17T06:44:05.980Z,4.91
2023-10-17T06:49:28.398Z,5.16
2023-10-17T06:54:32.032Z,5.40
2023-10-17T06:59:36.899Z,5.62
2023-10-17T07:04:38.647Z,5.86
2023-10-17T07:09:40.750Z,6.05
2023-10-17T07:14:48.215Z,6.26
2023-10-17T07:19:59.454Z,6.49
2023-10-17T07:25:02.927Z,6.68
2023-10-17T07:30:13.696Z,6.95
2023-10-17T07:35:26.011Z,7.54
2023-10-17T07:40:33.999Z,8.20
2023-10-17T07:45:42.209Z,8.45
2023-10-17T07:50:43.950Z,8.63
2023-10-17T07:55:49.788Z,8.90
2023-10-17T08:00:51.321Z,9.55
2023-10-17T08:06:05.888Z,9.88
2023-10-17T08:11:14.807Z,9.96
2023-10-17T08:16:25.681Z,10.24
2023-10-17T08:21:33.230Z,10.26
2023-10-17T08:26:40.980Z,10.14
2023-10-17T08:31:45.548Z,10.20
2023-10-17T08:36:50.368Z,11.58
2023-10-17T08:41:54.047Z,13.41
2023-10-17T08:46:56.817Z,16.40
2023-10-17T08:51:58.937Z,19.13
2023-10-17T08:57:02.035Z,21.78
2023-10-17T09:02:04.775Z,24.42
2023-10-17T09:07:09.157Z,26.99
2023-10-17T09:12:22.499Z,28.69
2023-10-17T09:17:26.875Z,29.46
2023-10-17T09:22:31.506Z,30.02
2023-10-17T09:27:34.084Z,30.95
2023-10-17T09:32:41.168Z,31.49
2023-10-17T09:37:51.261Z,31.50
2023-10-17T09:42:54.166Z,31.31
2023-10-17T09:47:59.644Z,31.31
2023-10-17T09:53:18.701Z,31.58
2023-10-17T09:58:28.768Z,32.14
2023-10-17T10:03:31.528Z,32.15
2023-10-17T10:08:33.644Z,32.25
2023-10-17T10:14:01.761Z,32.20
2023-10-17T10:19:04.051Z,32.42
2023-10-17T10:24:18.589Z,32.95
2023-10-17T10:29:24.445Z,33.43
2023-10-17T10:34:26.709Z,33.96
2023-10-17T10:39:28.310Z,33.59
2023-10-17T10:44:30.474Z,32.81
2023-10-17T10:49:32.373Z,29.69
2023-10-17T10:54:51.265Z,26.71
2023-10-17T10:59:53.001Z,24.23
2023-10-17T11:04:56.836Z,22.02
2023-10-17T11:10:07.521Z,19.84
2023-10-17T11:15:16.267Z,18.84
2023-10-17T11:20:19.481Z,18.07
2023-10-17T11:25:27.070Z,19.87
2023-10-17T11:30:55.560Z,22.12
2023-10-17T11:36:03.421Z,20.81
2023-10-17T11:41:05.649Z,19.39
2023-10-17T11:46:13.541Z,18.49
2023-10-17T11:51:18.714Z,19.33
2023-10-17T11:56:21.525Z,21.72
2023-10-17T12:01:23.760Z,24.29
2023-10-17T12:06:29.228Z,24.16
2023-10-17T12:11:31.219Z,23.61
2023-10-17T12:16:34.796Z,24.22
2023-10-17T12:21:36.477Z,21.77
2023-10-17T12:26:38.073Z,18.87
2023-10-17T12:31:41.158Z,17.72
2023-10-17T12:36:46.820Z,18.48
2023-10-17T12:41:49.773Z,21.96
2023-10-17T12:46:51.420Z,24.23
2023-10-17T12:51:54.013Z,22.21
2023-10-17T12:56:55.663Z,22.01
2023-10-17T13:01:57.638Z,23.96
2023-10-17T13:06:59.275Z,25.00
2023-10-17T13:12:01.187Z,25.29
2023-10-17T13:17:03.857Z,25.23
2023-10-17T13:22:09.223Z,25.40
2023-10-17T13:32:19.334Z,25.61
2023-10-17T13:37:20.903Z,25.50
2023-10-17T13:42:23.706Z,25.26
2023-10-17T13:47:26.404Z,24.46
2023-10-17T13:52:29.196Z,23.44
2023-10-17T13:57:32.440Z,22.55
2023-10-17T14:02:36.125Z,21.91
2023-10-17T14:07:40.181Z,21.54
2023-10-17T14:12:42.614Z,21.24
2023-10-17T14:17:47.251Z,20.35
2023-10-17T14:23:11.942Z,19.02
2023-10-17T14:28:13.504Z,17.92
2023-10-17T14:33:15.656Z,16.82
2023-10-17T14:38:17.185Z,16.05
2023-10-17T14:43:18.731Z,15.06
2023-10-17T14:48:21.259Z,13.87
2023-10-17T14:53:29.242Z,12.89
2023-10-17T14:58:37.626Z,12.14
2023-10-17T15:03:39.333Z,11.57
2023-10-17T15:08:41.374Z,11.15
2023-10-17T15:13:43.166Z,10.84
2023-10-17T15:18:45.622Z,10.61
2023-10-17T15:23:48.063Z,10.54
2023-10-17T15:28:49.503Z,10.32
2023-10-17T15:33:51.268Z,9.98
2023-10-17T15:38:53.933Z,9.62
2023-10-17T15:43:55.404Z,9.30
2023-10-17T15:48:56.884Z,8.99
2023-10-17T15:53:58.341Z,8.71
2023-10-17T15:58:59.785Z,8.43
2023-10-17T16:04:01.763Z,8.17
2023-10-17T16:09:03.422Z,7.94
2023-10-17T16:14:04.880Z,7.72
2023-10-17T16:19:07.686Z,7.55
2023-10-17T16:24:09.430Z,7.39
2023-10-17T16:29:11.238Z,7.23
2023-10-17T16:34:15.221Z,7.09
2023-10-17T16:39:16.680Z,7.00
2023-10-17T16:44:18.211Z,6.94
2023-10-17T16:49:21.300Z,6.86
2023-10-17T16:54:23.639Z,6.78
2023-10-17T16:59:27.342Z,6.69
2023-10-17T17:04:32.149Z,6.63
2023-10-17T17:09:34.002Z,6.59
2023-10-17T17:14:37.164Z,6.53
2023-10-17T17:19:39.012Z,6.44
2023-10-17T17:24:40.661Z,6.39
2023-10-17T17:29:42.345Z,6.35
2023-10-17T17:34:44.458Z,6.32
2023-10-17T17:39:46.956Z,6.27
2023-10-17T17:44:48.484Z,6.21
2023-10-17T17:49:50.119Z,6.17
2023-10-17T17:54:52.305Z,6.14
2023-10-17T17:59:53.942Z,6.08
2023-10-17T18:04:55.413Z,6.04
2023-10-17T18:09:57.475Z,6.02
2023-10-17T18:15:00.146Z,5.99
2023-10-17T18:20:02.161Z,5.98
2023-10-17T18:25:04.417Z,6.05
2023-10-17T18:30:09.750Z,6.13
2023-10-17T18:35:11.542Z,6.20
2023-10-17T18:40:13.690Z,6.23
2023-10-17T18:45:16.786Z,6.26
2023-10-17T18:50:18.779Z,6.32
2023-10-17T18:55:21.095Z,6.42
2023-10-17T19:00:23.863Z,6.49
2023-10-17T19:05:25.465Z,6.55
2023-10-17T19:10:27.954Z,6.60
2023-10-17T19:15:29.504Z,6.70
2023-10-17T19:20:31.780Z,6.81
2023-10-17T19:25:33.195Z,6.90
2023-10-17T19:30:38.171Z,6.97
2023-10-17T19:35:39.635Z,7.02
2023-10-17T19:40:41.190Z,7.07
2023-10-17T19:45:42.971Z,7.13
2023-10-17T19:50:44.881Z,7.14
2023-10-17T19:55:48.475Z,7.15
2023-10-17T20:00:50.409Z,7.16
2023-10-17T20:05:52.851Z,7.20
2023-10-17T20:11:01.593Z,7.21
2023-10-17T20:16:07.334Z,7.19
2023-10-17T20:21:11.158Z,7.18
2023-10-17T20:26:12.626Z,7.17
2023-10-17T20:31:27.227Z,7.07
2023-10-17T20:36:30.195Z,6.87
2023-10-17T20:41:34.290Z,6.67
2023-10-17T20:46:36.224Z,6.51
2023-10-17T20:51:39.344Z,6.38
2023-10-17T20:56:42.700Z,6.26
2023-10-17T21:01:44.609Z,6.13
2023-10-17T21:06:46.639Z,5.97
2023-10-17T21:11:48.437Z,5.81
2023-10-17T21:16:49.950Z,5.70
2023-10-17T21:21:53.064Z,5.61
2023-10-17T21:26:54.637Z,5.54
2023-10-17T21:31:56.431Z,5.48
2023-10-17T21:36:58.124Z,5.48
2023-10-17T21:42:00.231Z,5.57
2023-10-17T21:47:02.997Z,5.66
2023-10-17T21:52:04.865Z,5.66
2023-10-17T21:57:06.686Z,5.62
2023-10-17T22:02:09.149Z,5.56
2023-10-17T22:07:11.504Z,5.49
2023-10-17T22:12:13.159Z,5.41
2023-10-17T22:17:15.548Z,5.34
2023-10-17T22:22:17.052Z,5.27
2023-10-17T22:27:19.380Z,5.20
2023-10-17T22:32:20.865Z,5.12
2023-10-17T22:37:22.333Z,5.12
2023-10-17T22:42:23.918Z,5.22
2023-10-17T22:47:25.392Z,5.33
2023-10-17T22:52:26.967Z,5.38
2023-10-17T22:57:28.413Z,5.41
2023-10-17T23:02:29.875Z,5.46
2023-10-17T23:07:31.706Z,5.52
2023-10-17T23:12:34.786Z,5.56
2023-10-17T23:17:36.333Z,5.58
2023-10-17T23:22:38.252Z,5.58
2023-10-17T23:27:41.317Z,5.56
2023-10-17T23:32:47.280Z,5.56
2023-10-17T23:37:50.631Z,5.56
2023-10-17T23:42:52.060Z,5.54
2023-10-17T23:47:55.477Z,5.49
2023-10-17T23:52:57.484Z,5.47
2023-10-17T23:57:58.926Z,5.46
